sensor_id;sensor_type;location;lat;lon;timestamp;P1;durP1;ratioP1;P2;durP2;ratioP2
9934;SDS011;5006;41.828;23.478;2022-07-11T00:01:03;2.40;;;2.28;;
9934;SDS011;5006;41.828;23.478;2022-07-11T00:02:09;2.50;;;2.30;;
9934;SDS011;5006;41.828;23.478;2022-07-11T00:03:14;2.50;;;2.30;;
9934;SDS011;5006;41.828;23.478;2022-07-11T00:04:20;2.70;;;2.50;;
9934;SDS011;5006;41.828;23.478;2022-07-11T00:05:27;3.03;;;2.58;;
9934;SDS011;5006;41.828;23.478;2022-07-11T00:06:32;2.63;;;2.42;;
9934;SDS011;5006;41.828;23.478;2022-07-11T00:07:37;3.47;;;2.40;;
9934;SDS011;5006;41.828;23.478;2022-07-11T00:08:43;2.90;;;2.35;;
9934;SDS011;5006;41.828;23.478;2022-07-11T00:09:48;2.42;;;2.22;;
9934;SDS011;5006;41.828;23.478;2022-07-11T00:10:54;2.60;;;2.40;;
9934;SDS011;5006;41.828;23.478;2022-07-11T00:11:59;2.80;;;2.60;;
9934;SDS011;5006;41.828;23.478;2022-07-11T00:13:05;2.55;;;2.35;;
9934;SDS011;5006;41.828;23.478;2022-07-11T00:14:10;2.40;;;2.20;;
9934;SDS011;5006;41.828;23.478;2022-07-11T00:15:16;3.58;;;2.47;;
9934;SDS011;5006;41.828;23.478;2022-07-11T00:16:22;2.35;;;2.15;;
9934;SDS011;5006;41.828;23.478;2022-07-11T00:17:27;2.55;;;2.35;;
9934;SDS011;5006;41.828;23.478;2022-07-11T00:18:32;2.63;;;2.28;;
9934;SDS011;5006;41.828;23.478;2022-07-11T00:19:37;4.15;;;2.75;;
9934;SDS011;5006;41.828;23.478;2022-07-11T00:20:44;1.80;;;1.70;;
9934;SDS011;5006;41.828;23.478;2022-07-11T00:21:50;3.95;;;2.15;;
9934;SDS011;5006;41.828;23.478;2022-07-11T00:22:57;2.78;;;1.90;;
9934;SDS011;5006;41.828;23.478;2022-07-11T00:24:01;4.80;;;2.20;;
9934;SDS011;5006;41.828;23.478;2022-07-11T00:25:08;2.40;;;2.20;;
9934;SDS011;5006;41.828;23.478;2022-07-11T00:26:13;3.50;;;2.28;;
9934;SDS011;5006;41.828;23.478;2022-07-11T00:27:19;3.30;;;2.47;;
9934;SDS011;5006;41.828;23.478;2022-07-11T00:28:24;2.28;;;2.13;;
9934;SDS011;5006;41.828;23.478;2022-07-11T00:29:30;2.42;;;2.05;;
9934;SDS011;5006;41.828;23.478;2022-07-11T00:30:36;2.40;;;2.20;;
9934;SDS011;5006;41.828;23.478;2022-07-11T00:31:41;2.25;;;1.92;;
9934;SDS011;5006;41.828;23.478;2022-07-11T00:32:46;2.38;;;2.17;;
9934;SDS011;5006;41.828;23.478;2022-07-11T00:33:52;2.20;;;2.00;;
9934;SDS011;5006;41.828;23.478;2022-07-11T00:34:57;2.67;;;1.90;;
9934;SDS011;5006;41.828;23.478;2022-07-11T00:36:05;2.13;;;2.03;;
9934;SDS011;5006;41.828;23.478;2022-07-11T00:37:10;2.30;;;2.10;;
9934;SDS011;5006;41.828;23.478;2022-07-11T00:38:16;2.65;;;2.30;;
9934;SDS011;5006;41.828;23.478;2022-07-11T00:39:21;3.30;;;2.00;;
9934;SDS011;5006;41.828;23.478;2022-07-11T00:40:27;3.05;;;2.00;;
9934;SDS011;5006;41.828;23.478;2022-07-11T00:41:31;2.47;;;2.28;;
9934;SDS011;5006;41.828;23.478;2022-07-11T00:42:37;2.20;;;2.10;;
9934;SDS011;5006;41.828;23.478;2022-07-11T00:43:43;3.45;;;2.17;;
9934;SDS011;5006;41.828;23.478;2022-07-11T00:44:54;2.72;;;2.53;;
9934;SDS011;5006;41.828;23.478;2022-07-11T00:45:59;3.40;;;3.10;;
9934;SDS011;5006;41.828;23.478;2022-07-11T00:47:05;3.22;;;2.92;;
9934;SDS011;5006;41.828;23.478;2022-07-11T00:48:11;3.95;;;3.45;;
9934;SDS011;5006;41.828;23.478;2022-07-11T00:49:15;3.08;;;2.88;;
9934;SDS011;5006;41.828;23.478;2022-07-11T00:50:22;3.38;;;3.08;;
9934;SDS011;5006;41.828;23.478;2022-07-11T00:51:28;3.10;;;2.83;;
9934;SDS011;5006;41.828;23.478;2022-07-11T00:52:35;2.85;;;2.58;;
9934;SDS011;5006;41.828;23.478;2022-07-11T00:53:41;3.17;;;2.78;;
9934;SDS011;5006;41.828;23.478;2022-07-11T00:54:47;2.33;;;2.20;;
9934;SDS011;5006;41.828;23.478;2022-07-11T00:55:53;2.45;;;2.25;;
9934;SDS011;5006;41.828;23.478;2022-07-11T00:56:59;3.60;;;2.40;;
9934;SDS011;5006;41.828;23.478;2022-07-11T00:58:04;2.60;;;2.40;;
9934;SDS011;5006;41.828;23.478;2022-07-11T00:59:11;2.80;;;2.60;;
9934;SDS011;5006;41.828;23.478;2022-07-11T01:00:16;3.13;;;2.70;;
9934;SDS011;5006;41.828;23.478;2022-07-11T01:01:22;4.13;;;2.75;;
9934;SDS011;5006;41.828;23.478;2022-07-11T01:02:27;3.00;;;2.80;;
9934;SDS011;5006;41.828;23.478;2022-07-11T01:03:33;3.08;;;2.80;;
9934;SDS011;5006;41.828;23.478;2022-07-11T01:04:38;2.85;;;2.65;;
9934;SDS011;5006;41.828;23.478;2022-07-11T01:05:44;3.00;;;2.70;;
9934;SDS011;5006;41.828;23.478;2022-07-11T01:06:51;2.70;;;2.50;;
9934;SDS011;5006;41.828;23.478;2022-07-11T01:07:56;2.78;;;2.55;;
9934;SDS011;5006;41.828;23.478;2022-07-11T01:09:02;2.78;;;2.58;;
9934;SDS011;5006;41.828;23.478;2022-07-11T01:10:08;2.85;;;2.65;;
9934;SDS011;5006;41.828;23.478;2022-07-11T01:11:13;2.88;;;2.67;;
9934;SDS011;5006;41.828;23.478;2022-07-11T01:12:19;2.80;;;2.50;;
9934;SDS011;5006;41.828;23.478;2022-07-11T01:13:24;3.05;;;2.75;;
9934;SDS011;5006;41.828;23.478;2022-07-11T01:14:31;3.10;;;2.83;;
9934;SDS011;5006;41.828;23.478;2022-07-11T01:15:35;3.22;;;2.80;;
9934;SDS011;5006;41.828;23.478;2022-07-11T01:16:42;2.60;;;2.40;;
9934;SDS011;5006;41.828;23.478;2022-07-11T01:17:47;2.60;;;2.40;;
9934;SDS011;5006;41.828;23.478;2022-07-11T01:18:53;2.53;;;2.28;;
9934;SDS011;5006;41.828;23.478;2022-07-11T01:19:59;2.35;;;2.15;;
9934;SDS011;5006;41.828;23.478;2022-07-11T01:21:20;2.30;;;2.10;;
9934;SDS011;5006;41.828;23.478;2022-07-11T01:22:30;2.33;;;2.13;;
9934;SDS011;5006;41.828;23.478;2022-07-11T01:23:42;2.08;;;1.90;;
9934;SDS011;5006;41.828;23.478;2022-07-11T01:24:46;2.20;;;2.00;;
9934;SDS011;5006;41.828;23.478;2022-07-11T01:25:52;2.22;;;2.03;;
9934;SDS011;5006;41.828;23.478;2022-07-11T01:26:58;3.65;;;2.20;;
9934;SDS011;5006;41.828;23.478;2022-07-11T01:28:04;4.03;;;2.63;;
9934;SDS011;5006;41.828;23.478;2022-07-11T01:29:10;2.90;;;2.70;;
9934;SDS011;5006;41.828;23.478;2022-07-11T01:30:17;2.60;;;2.40;;
9934;SDS011;5006;41.828;23.478;2022-07-11T01:31:22;3.10;;;2.85;;
9934;SDS011;5006;41.828;23.478;2022-07-11T01:32:29;2.92;;;2.63;;
9934;SDS011;5006;41.828;23.478;2022-07-11T01:33:34;4.10;;;2.55;;
9934;SDS011;5006;41.828;23.478;2022-07-11T01:34:40;4.00;;;2.40;;
9934;SDS011;5006;41.828;23.478;2022-07-11T01:35:45;3.03;;;2.78;;
9934;SDS011;5006;41.828;23.478;2022-07-11T01:36:50;3.33;;;2.40;;
9934;SDS011;5006;41.828;23.478;2022-07-11T01:37:56;3.05;;;2.75;;
9934;SDS011;5006;41.828;23.478;2022-07-11T01:39:03;2.55;;;2.35;;
9934;SDS011;5006;41.828;23.478;2022-07-11T01:40:10;2.90;;;2.70;;
9934;SDS011;5006;41.828;23.478;2022-07-11T01:41:15;2.80;;;2.60;;
9934;SDS011;5006;41.828;23.478;2022-07-11T01:42:21;2.72;;;2.53;;
9934;SDS011;5006;41.828;23.478;2022-07-11T01:43:26;3.35;;;3.05;;
9934;SDS011;5006;41.828;23.478;2022-07-11T01:44:31;3.42;;;3.05;;
9934;SDS011;5006;41.828;23.478;2022-07-11T01:45:37;2.90;;;2.60;;
9934;SDS011;5006;41.828;23.478;2022-07-11T01:46:42;2.85;;;2.65;;
9934;SDS011;5006;41.828;23.478;2022-07-11T01:47:48;3.38;;;3.00;;
9934;SDS011;5006;41.828;23.478;2022-07-11T01:48:52;3.35;;;2.90;;
9934;SDS011;5006;41.828;23.478;2022-07-11T01:49:58;3.50;;;3.20;;
9934;SDS011;5006;41.828;23.478;2022-07-11T01:51:04;3.72;;;3.25;;
9934;SDS011;5006;41.828;23.478;2022-07-11T01:52:10;3.45;;;3.15;;
9934;SDS011;5006;41.828;23.478;2022-07-11T01:53:15;3.53;;;3.22;;
9934;SDS011;5006;41.828;23.478;2022-07-11T01:54:23;6.45;;;3.30;;
9934;SDS011;5006;41.828;23.478;2022-07-11T01:55:28;3.40;;;3.10;;
9934;SDS011;5006;41.828;23.478;2022-07-11T01:56:34;3.55;;;3.05;;
9934;SDS011;5006;41.828;23.478;2022-07-11T01:57:39;4.03;;;3.72;;
9934;SDS011;5006;41.828;23.478;2022-07-11T01:58:45;4.85;;;4.35;;
9934;SDS011;5006;41.828;23.478;2022-07-11T01:59:49;5.15;;;4.75;;
9934;SDS011;5006;41.828;23.478;2022-07-11T02:00:55;4.50;;;4.10;;
9934;SDS011;5006;41.828;23.478;2022-07-11T02:02:01;5.35;;;3.78;;
9934;SDS011;5006;41.828;23.478;2022-07-11T02:03:06;4.32;;;4.03;;
9934;SDS011;5006;41.828;23.478;2022-07-11T02:04:12;3.40;;;3.10;;
9934;SDS011;5006;41.828;23.478;2022-07-11T02:05:17;3.50;;;3.20;;
9934;SDS011;5006;41.828;23.478;2022-07-11T02:06:23;3.40;;;2.80;;
9934;SDS011;5006;41.828;23.478;2022-07-11T02:07:28;3.17;;;2.97;;
9934;SDS011;5006;41.828;23.478;2022-07-11T02:08:51;3.47;;;3.17;;
9934;SDS011;5006;41.828;23.478;2022-07-11T02:09:58;3.72;;;3.42;;
9934;SDS011;5006;41.828;23.478;2022-07-11T02:11:03;3.28;;;2.97;;
9934;SDS011;5006;41.828;23.478;2022-07-11T02:12:09;2.92;;;2.72;;
9934;SDS011;5006;41.828;23.478;2022-07-11T02:13:15;2.60;;;2.40;;
9934;SDS011;5006;41.828;23.478;2022-07-11T02:14:23;2.72;;;2.53;;
9934;SDS011;5006;41.828;23.478;2022-07-11T02:15:29;2.97;;;2.78;;
9934;SDS011;5006;41.828;23.478;2022-07-11T02:16:35;3.22;;;2.92;;
9934;SDS011;5006;41.828;23.478;2022-07-11T02:17:40;2.70;;;2.50;;
9934;SDS011;5006;41.828;23.478;2022-07-11T02:18:46;3.30;;;2.70;;
9934;SDS011;5006;41.828;23.478;2022-07-11T02:19:51;3.08;;;2.88;;
9934;SDS011;5006;41.828;23.478;2022-07-11T02:20:57;3.25;;;2.85;;
9934;SDS011;5006;41.828;23.478;2022-07-11T02:22:02;3.72;;;3.40;;
9934;SDS011;5006;41.828;23.478;2022-07-11T02:23:10;3.28;;;3.08;;
9934;SDS011;5006;41.828;23.478;2022-07-11T02:24:15;3.35;;;3.05;;
9934;SDS011;5006;41.828;23.478;2022-07-11T02:25:23;3.38;;;3.10;;
9934;SDS011;5006;41.828;23.478;2022-07-11T02:26:27;4.22;;;3.08;;
9934;SDS011;5006;41.828;23.478;2022-07-11T02:27:33;3.72;;;3.42;;
9934;SDS011;5006;41.828;23.478;2022-07-11T02:28:37;2.97;;;2.78;;
9934;SDS011;5006;41.828;23.478;2022-07-11T02:29:44;3.55;;;3.28;;
9934;SDS011;5006;41.828;23.478;2022-07-11T02:30:49;3.58;;;3.30;;
9934;SDS011;5006;41.828;23.478;2022-07-11T02:31:55;4.00;;;3.28;;
9934;SDS011;5006;41.828;23.478;2022-07-11T02:32:59;3.38;;;3.15;;
9934;SDS011;5006;41.828;23.478;2022-07-11T02:34:05;4.55;;;3.30;;
9934;SDS011;5006;41.828;23.478;2022-07-11T02:35:10;3.42;;;3.13;;
9934;SDS011;5006;41.828;23.478;2022-07-11T02:36:16;5.22;;;3.20;;
9934;SDS011;5006;41.828;23.478;2022-07-11T02:37:21;3.78;;;3.47;;
9934;SDS011;5006;41.828;23.478;2022-07-11T02:38:27;3.53;;;3.10;;
9934;SDS011;5006;41.828;23.478;2022-07-11T02:39:31;3.42;;;3.13;;
9934;SDS011;5006;41.828;23.478;2022-07-11T02:40:39;3.50;;;3.20;;
9934;SDS011;5006;41.828;23.478;2022-07-11T02:41:43;3.55;;;3.25;;
9934;SDS011;5006;41.828;23.478;2022-07-11T02:42:49;3.30;;;3.00;;
9934;SDS011;5006;41.828;23.478;2022-07-11T02:43:54;3.30;;;3.00;;
9934;SDS011;5006;41.828;23.478;2022-07-11T02:44:59;3.67;;;3.38;;
9934;SDS011;5006;41.828;23.478;2022-07-11T02:46:04;2.95;;;2.75;;
9934;SDS011;5006;41.828;23.478;2022-07-11T02:47:10;3.13;;;2.90;;
9934;SDS011;5006;41.828;23.478;2022-07-11T02:48:16;3.30;;;3.05;;
9934;SDS011;5006;41.828;23.478;2022-07-11T02:49:21;3.17;;;2.83;;
9934;SDS011;5006;41.828;23.478;2022-07-11T02:50:27;3.88;;;3.35;;
9934;SDS011;5006;41.828;23.478;2022-07-11T02:51:33;4.28;;;3.50;;
9934;SDS011;5006;41.828;23.478;2022-07-11T02:52:38;3.40;;;3.13;;
9934;SDS011;5006;41.828;23.478;2022-07-11T02:53:44;3.67;;;3.35;;
9934;SDS011;5006;41.828;23.478;2022-07-11T02:54:49;3.00;;;2.80;;
9934;SDS011;5006;41.828;23.478;2022-07-11T02:55:56;3.60;;;3.30;;
9934;SDS011;5006;41.828;23.478;2022-07-11T02:57:01;3.42;;;3.22;;
9934;SDS011;5006;41.828;23.478;2022-07-11T02:58:06;3.30;;;3.10;;
9934;SDS011;5006;41.828;23.478;2022-07-11T02:59:11;3.60;;;3.30;;
9934;SDS011;5006;41.828;23.478;2022-07-11T03:00:17;4.20;;;3.80;;
9934;SDS011;5006;41.828;23.478;2022-07-11T03:01:23;4.90;;;4.50;;
9934;SDS011;5006;41.828;23.478;2022-07-11T03:02:28;4.47;;;4.15;;
9934;SDS011;5006;41.828;23.478;2022-07-11T03:03:34;4.13;;;3.83;;
9934;SDS011;5006;41.828;23.478;2022-07-11T03:04:39;3.90;;;3.38;;
9934;SDS011;5006;41.828;23.478;2022-07-11T03:05:45;3.50;;;3.20;;
9934;SDS011;5006;41.828;23.478;2022-07-11T03:06:50;3.53;;;3.22;;
9934;SDS011;5006;41.828;23.478;2022-07-11T03:07:58;3.90;;;3.60;;
9934;SDS011;5006;41.828;23.478;2022-07-11T03:09:03;3.92;;;3.67;;
9934;SDS011;5006;41.828;23.478;2022-07-11T03:10:08;3.85;;;3.35;;
9934;SDS011;5006;41.828;23.478;2022-07-11T03:11:15;3.50;;;3.20;;
9934;SDS011;5006;41.828;23.478;2022-07-11T03:12:20;3.63;;;3.42;;
9934;SDS011;5006;41.828;23.478;2022-07-11T03:13:25;3.60;;;3.00;;
9934;SDS011;5006;41.828;23.478;2022-07-11T03:14:31;4.10;;;3.28;;
9934;SDS011;5006;41.828;23.478;2022-07-11T03:15:36;3.95;;;3.55;;
9934;SDS011;5006;41.828;23.478;2022-07-11T03:16:42;3.50;;;3.30;;
9934;SDS011;5006;41.828;23.478;2022-07-11T03:17:46;5.18;;;3.40;;
9934;SDS011;5006;41.828;23.478;2022-07-11T03:18:53;3.30;;;3.00;;
9934;SDS011;5006;41.828;23.478;2022-07-11T03:19:58;3.20;;;2.90;;
9934;SDS011;5006;41.828;23.478;2022-07-11T03:21:05;3.70;;;3.40;;
9934;SDS011;5006;41.828;23.478;2022-07-11T03:22:09;3.70;;;3.40;;
9934;SDS011;5006;41.828;23.478;2022-07-11T03:23:15;4.65;;;3.17;;
9934;SDS011;5006;41.828;23.478;2022-07-11T03:24:20;3.80;;;3.38;;
9934;SDS011;5006;41.828;23.478;2022-07-11T03:25:26;3.72;;;3.33;;
9934;SDS011;5006;41.828;23.478;2022-07-11T03:26:34;4.45;;;3.40;;
9934;SDS011;5006;41.828;23.478;2022-07-11T03:27:39;3.55;;;3.25;;
9934;SDS011;5006;41.828;23.478;2022-07-11T03:28:45;3.95;;;3.50;;
9934;SDS011;5006;41.828;23.478;2022-07-11T03:29:50;3.42;;;3.22;;
9934;SDS011;5006;41.828;23.478;2022-07-11T03:30:56;3.40;;;3.10;;
9934;SDS011;5006;41.828;23.478;2022-07-11T03:32:00;3.60;;;3.30;;
9934;SDS011;5006;41.828;23.478;2022-07-11T03:33:06;4.28;;;3.33;;
9934;SDS011;5006;41.828;23.478;2022-07-11T03:34:11;3.60;;;3.30;;
9934;SDS011;5006;41.828;23.478;2022-07-11T03:35:17;6.88;;;3.85;;
9934;SDS011;5006;41.828;23.478;2022-07-11T03:36:40;4.07;;;3.78;;
9934;SDS011;5006;41.828;23.478;2022-07-11T03:37:46;3.92;;;3.63;;
9934;SDS011;5006;41.828;23.478;2022-07-11T03:38:51;5.30;;;3.90;;
9934;SDS011;5006;41.828;23.478;2022-07-11T03:39:57;5.25;;;4.28;;
9934;SDS011;5006;41.828;23.478;2022-07-11T03:41:02;4.18;;;3.85;;
9934;SDS011;5006;41.828;23.478;2022-07-11T03:42:10;4.32;;;3.92;;
9934;SDS011;5006;41.828;23.478;2022-07-11T03:43:14;4.35;;;3.95;;
9934;SDS011;5006;41.828;23.478;2022-07-11T03:44:20;4.30;;;4.00;;
9934;SDS011;5006;41.828;23.478;2022-07-11T03:45:25;4.10;;;3.80;;
9934;SDS011;5006;41.828;23.478;2022-07-11T03:46:31;4.20;;;3.90;;
9934;SDS011;5006;41.828;23.478;2022-07-11T03:47:36;3.75;;;3.45;;
9934;SDS011;5006;41.828;23.478;2022-07-11T03:48:42;3.20;;;3.00;;
9934;SDS011;5006;41.828;23.478;2022-07-11T03:49:48;3.30;;;3.10;;
9934;SDS011;5006;41.828;23.478;2022-07-11T03:50:53;4.43;;;4.03;;
9934;SDS011;5006;41.828;23.478;2022-07-11T03:51:58;3.65;;;3.30;;
9934;SDS011;5006;41.828;23.478;2022-07-11T03:53:04;4.80;;;3.35;;
9934;SDS011;5006;41.828;23.478;2022-07-11T03:54:09;3.83;;;3.53;;
9934;SDS011;5006;41.828;23.478;2022-07-11T03:55:15;4.00;;;3.70;;
9934;SDS011;5006;41.828;23.478;2022-07-11T03:56:20;3.58;;;3.38;;
9934;SDS011;5006;41.828;23.478;2022-07-11T03:57:28;3.80;;;3.50;;
9934;SDS011;5006;41.828;23.478;2022-07-11T03:58:33;3.53;;;3.22;;
9934;SDS011;5006;41.828;23.478;2022-07-11T03:59:39;4.72;;;3.40;;
9934;SDS011;5006;41.828;23.478;2022-07-11T04:00:44;3.92;;;3.63;;
9934;SDS011;5006;41.828;23.478;2022-07-11T04:01:49;3.80;;;3.50;;
9934;SDS011;5006;41.828;23.478;2022-07-11T04:02:55;3.45;;;3.25;;
9934;SDS011;5006;41.828;23.478;2022-07-11T04:04:00;3.42;;;3.13;;
9934;SDS011;5006;41.828;23.478;2022-07-11T04:05:06;3.60;;;3.30;;
9934;SDS011;5006;41.828;23.478;2022-07-11T04:06:11;3.05;;;2.85;;
9934;SDS011;5006;41.828;23.478;2022-07-11T04:07:18;3.10;;;2.90;;
9934;SDS011;5006;41.828;23.478;2022-07-11T04:08:23;2.95;;;2.70;;
9934;SDS011;5006;41.828;23.478;2022-07-11T04:09:29;3.00;;;2.80;;
9934;SDS011;5006;41.828;23.478;2022-07-11T04:10:35;2.67;;;2.47;;
9934;SDS011;5006;41.828;23.478;2022-07-11T04:11:41;3.00;;;2.80;;
9934;SDS011;5006;41.828;23.478;2022-07-11T04:12:47;4.57;;;2.55;;
9934;SDS011;5006;41.828;23.478;2022-07-11T04:13:53;2.88;;;2.60;;
9934;SDS011;5006;41.828;23.478;2022-07-11T04:14:58;2.60;;;2.40;;
9934;SDS011;5006;41.828;23.478;2022-07-11T04:16:04;3.70;;;2.50;;
9934;SDS011;5006;41.828;23.478;2022-07-11T04:17:10;2.40;;;2.20;;
9934;SDS011;5006;41.828;23.478;2022-07-11T04:18:15;2.95;;;2.63;;
9934;SDS011;5006;41.828;23.478;2022-07-11T04:19:21;2.63;;;2.38;;
9934;SDS011;5006;41.828;23.478;2022-07-11T04:20:27;3.25;;;2.60;;
9934;SDS011;5006;41.828;23.478;2022-07-11T04:21:33;4.20;;;2.65;;
9934;SDS011;5006;41.828;23.478;2022-07-11T04:22:38;2.50;;;2.30;;
9934;SDS011;5006;41.828;23.478;2022-07-11T04:23:44;3.55;;;2.70;;
9934;SDS011;5006;41.828;23.478;2022-07-11T04:24:50;3.30;;;2.40;;
9934;SDS011;5006;41.828;23.478;2022-07-11T04:25:55;2.88;;;2.30;;
9934;SDS011;5006;41.828;23.478;2022-07-11T04:27:00;2.38;;;2.17;;
9934;SDS011;5006;41.828;23.478;2022-07-11T04:28:07;2.60;;;2.40;;
9934;SDS011;5006;41.828;23.478;2022-07-11T04:29:13;4.53;;;2.85;;
9934;SDS011;5006;41.828;23.478;2022-07-11T04:30:17;3.13;;;2.45;;
9934;SDS011;5006;41.828;23.478;2022-07-11T04:31:23;4.00;;;2.20;;
9934;SDS011;5006;41.828;23.478;2022-07-11T04:32:28;2.30;;;2.10;;
9934;SDS011;5006;41.828;23.478;2022-07-11T04:33:34;2.53;;;2.10;;
9934;SDS011;5006;41.828;23.478;2022-07-11T04:34:39;5.03;;;2.13;;
9934;SDS011;5006;41.828;23.478;2022-07-11T04:35:45;2.58;;;2.38;;
9934;SDS011;5006;41.828;23.478;2022-07-11T04:36:50;3.78;;;2.17;;
9934;SDS011;5006;41.828;23.478;2022-07-11T04:37:56;4.80;;;2.22;;
9934;SDS011;5006;41.828;23.478;2022-07-11T04:39:02;4.68;;;2.40;;
9934;SDS011;5006;41.828;23.478;2022-07-11T04:40:07;2.50;;;1.95;;
9934;SDS011;5006;41.828;23.478;2022-07-11T04:41:13;2.30;;;2.10;;
9934;SDS011;5006;41.828;23.478;2022-07-11T04:42:18;4.07;;;2.17;;
9934;SDS011;5006;41.828;23.478;2022-07-11T04:43:25;2.63;;;2.20;;
9934;SDS011;5006;41.828;23.478;2022-07-11T04:44:31;3.30;;;2.67;;
9934;SDS011;5006;41.828;23.478;2022-07-11T04:45:36;3.90;;;2.60;;
9934;SDS011;5006;41.828;23.478;2022-07-11T04:46:41;5.25;;;2.78;;
9934;SDS011;5006;41.828;23.478;2022-07-11T04:47:46;4.13;;;3.22;;
9934;SDS011;5006;41.828;23.478;2022-07-11T04:48:52;5.70;;;4.00;;
9934;SDS011;5006;41.828;23.478;2022-07-11T04:49:57;6.60;;;4.22;;
9934;SDS011;5006;41.828;23.478;2022-07-11T04:51:04;5.15;;;3.90;;
9934;SDS011;5006;41.828;23.478;2022-07-11T04:52:09;4.30;;;3.28;;
9934;SDS011;5006;41.828;23.478;2022-07-11T04:53:15;3.03;;;2.58;;
9934;SDS011;5006;41.828;23.478;2022-07-11T04:54:21;3.65;;;3.25;;
9934;SDS011;5006;41.828;23.478;2022-07-11T04:55:27;3.67;;;3.38;;
9934;SDS011;5006;41.828;23.478;2022-07-11T04:56:33;3.38;;;3.08;;
9934;SDS011;5006;41.828;23.478;2022-07-11T04:57:38;3.60;;;3.10;;
9934;SDS011;5006;41.828;23.478;2022-07-11T04:58:45;4.85;;;3.08;;
9934;SDS011;5006;41.828;23.478;2022-07-11T04:59:49;3.85;;;3.45;;
9934;SDS011;5006;41.828;23.478;2022-07-11T05:00:55;4.85;;;3.25;;
9934;SDS011;5006;41.828;23.478;2022-07-11T05:02:00;5.40;;;2.60;;
9934;SDS011;5006;41.828;23.478;2022-07-11T05:03:06;4.40;;;3.10;;
9934;SDS011;5006;41.828;23.478;2022-07-11T05:04:10;4.65;;;2.80;;
9934;SDS011;5006;41.828;23.478;2022-07-11T05:05:16;3.60;;;3.30;;
9934;SDS011;5006;41.828;23.478;2022-07-11T05:06:23;9.05;;;3.60;;
9934;SDS011;5006;41.828;23.478;2022-07-11T05:07:28;3.95;;;3.15;;
9934;SDS011;5006;41.828;23.478;2022-07-11T05:08:34;3.35;;;3.05;;
9934;SDS011;5006;41.828;23.478;2022-07-11T05:09:40;3.50;;;3.20;;
9934;SDS011;5006;41.828;23.478;2022-07-11T05:10:46;5.47;;;3.20;;
9934;SDS011;5006;41.828;23.478;2022-07-11T05:11:50;3.45;;;3.10;;
9934;SDS011;5006;41.828;23.478;2022-07-11T05:12:56;6.18;;;3.10;;
9934;SDS011;5006;41.828;23.478;2022-07-11T05:14:03;4.03;;;3.20;;
9934;SDS011;5006;41.828;23.478;2022-07-11T05:15:08;7.13;;;3.03;;
9934;SDS011;5006;41.828;23.478;2022-07-11T05:16:14;3.83;;;2.95;;
9934;SDS011;5006;41.828;23.478;2022-07-11T05:17:19;3.22;;;2.92;;
9934;SDS011;5006;41.828;23.478;2022-07-11T05:18:25;4.93;;;2.97;;
9934;SDS011;5006;41.828;23.478;2022-07-11T05:19:30;4.10;;;3.00;;
9934;SDS011;5006;41.828;23.478;2022-07-11T05:20:36;3.92;;;2.75;;
9934;SDS011;5006;41.828;23.478;2022-07-11T05:21:40;4.70;;;2.33;;
9934;SDS011;5006;41.828;23.478;2022-07-11T05:22:46;3.15;;;2.45;;
9934;SDS011;5006;41.828;23.478;2022-07-11T05:23:51;3.47;;;2.58;;
9934;SDS011;5006;41.828;23.478;2022-07-11T05:24:57;4.03;;;2.40;;
9934;SDS011;5006;41.828;23.478;2022-07-11T05:26:02;4.97;;;2.75;;
9934;SDS011;5006;41.828;23.478;2022-07-11T05:27:08;2.67;;;2.47;;
9934;SDS011;5006;41.828;23.478;2022-07-11T05:28:13;3.83;;;2.60;;
9934;SDS011;5006;41.828;23.478;2022-07-11T05:29:20;8.02;;;2.40;;
9934;SDS011;5006;41.828;23.478;2022-07-11T05:30:25;4.15;;;2.33;;
9934;SDS011;5006;41.828;23.478;2022-07-11T05:31:30;3.33;;;2.38;;
9934;SDS011;5006;41.828;23.478;2022-07-11T05:32:37;2.80;;;2.15;;
9934;SDS011;5006;41.828;23.478;2022-07-11T05:33:43;3.55;;;2.25;;
9934;SDS011;5006;41.828;23.478;2022-07-11T05:34:47;3.63;;;2.42;;
9934;SDS011;5006;41.828;23.478;2022-07-11T05:35:53;6.30;;;2.33;;
9934;SDS011;5006;41.828;23.478;2022-07-11T05:36:58;4.75;;;2.30;;
9934;SDS011;5006;41.828;23.478;2022-07-11T05:38:04;2.30;;;2.10;;
9934;SDS011;5006;41.828;23.478;2022-07-11T05:39:09;3.83;;;2.15;;
9934;SDS011;5006;41.828;23.478;2022-07-11T05:40:15;4.80;;;2.20;;
9934;SDS011;5006;41.828;23.478;2022-07-11T05:41:20;6.05;;;2.08;;
9934;SDS011;5006;41.828;23.478;2022-07-11T05:42:26;2.47;;;2.10;;
9934;SDS011;5006;41.828;23.478;2022-07-11T05:43:31;2.90;;;2.20;;
9934;SDS011;5006;41.828;23.478;2022-07-11T05:44:38;4.28;;;1.90;;
9934;SDS011;5006;41.828;23.478;2022-07-11T05:45:42;3.53;;;2.20;;
9934;SDS011;5006;41.828;23.478;2022-07-11T05:46:48;2.75;;;2.10;;
9934;SDS011;5006;41.828;23.478;2022-07-11T05:47:53;1.97;;;1.77;;
9934;SDS011;5006;41.828;23.478;2022-07-11T05:48:58;4.07;;;1.83;;
9934;SDS011;5006;41.828;23.478;2022-07-11T05:50:03;2.93;;;2.20;;
9934;SDS011;5006;41.828;23.478;2022-07-11T05:51:10;2.50;;;2.13;;
9934;SDS011;5006;41.828;23.478;2022-07-11T05:52:15;1.97;;;1.73;;
9934;SDS011;5006;41.828;23.478;2022-07-11T05:53:21;1.90;;;1.80;;
9934;SDS011;5006;41.828;23.478;2022-07-11T05:54:26;2.03;;;1.87;;
9934;SDS011;5006;41.828;23.478;2022-07-11T05:55:31;3.43;;;1.57;;
9934;SDS011;5006;41.828;23.478;2022-07-11T05:56:36;3.30;;;1.83;;
9934;SDS011;5006;41.828;23.478;2022-07-11T05:57:42;1.80;;;1.70;;
9934;SDS011;5006;41.828;23.478;2022-07-11T05:58:46;5.70;;;2.03;;
9934;SDS011;5006;41.828;23.478;2022-07-11T05:59:54;6.03;;;1.70;;
9934;SDS011;5006;41.828;23.478;2022-07-11T06:00:58;3.67;;;2.00;;
9934;SDS011;5006;41.828;23.478;2022-07-11T06:02:04;2.70;;;1.90;;
9934;SDS011;5006;41.828;23.478;2022-07-11T06:03:11;2.28;;;1.83;;
9934;SDS011;5006;41.828;23.478;2022-07-11T06:04:16;2.25;;;1.80;;
9934;SDS011;5006;41.828;23.478;2022-07-11T06:05:21;2.07;;;1.57;;
9934;SDS011;5006;41.828;23.478;2022-07-11T06:06:27;1.70;;;1.60;;
9934;SDS011;5006;41.828;23.478;2022-07-11T06:07:31;3.77;;;2.00;;
9934;SDS011;5006;41.828;23.478;2022-07-11T06:08:55;4.07;;;1.60;;
9934;SDS011;5006;41.828;23.478;2022-07-11T06:10:01;3.38;;;2.03;;
9934;SDS011;5006;41.828;23.478;2022-07-11T06:11:07;2.97;;;1.80;;
9934;SDS011;5006;41.828;23.478;2022-07-11T06:12:14;2.88;;;1.80;;
9934;SDS011;5006;41.828;23.478;2022-07-11T06:13:20;2.95;;;1.60;;
9934;SDS011;5006;41.828;23.478;2022-07-11T06:14:24;2.92;;;1.55;;
9934;SDS011;5006;41.828;23.478;2022-07-11T06:15:32;1.80;;;1.50;;
9934;SDS011;5006;41.828;23.478;2022-07-11T06:16:36;3.05;;;1.70;;
9934;SDS011;5006;41.828;23.478;2022-07-11T06:17:42;2.78;;;1.88;;
9934;SDS011;5006;41.828;23.478;2022-07-11T06:18:49;4.72;;;1.70;;
9934;SDS011;5006;41.828;23.478;2022-07-11T06:19:55;2.63;;;1.50;;
9934;SDS011;5006;41.828;23.478;2022-07-11T06:20:59;2.90;;;1.70;;
9934;SDS011;5006;41.828;23.478;2022-07-11T06:22:05;2.13;;;1.65;;
9934;SDS011;5006;41.828;23.478;2022-07-11T06:23:10;2.08;;;1.50;;
9934;SDS011;5006;41.828;23.478;2022-07-11T06:24:16;2.67;;;1.55;;
9934;SDS011;5006;41.828;23.478;2022-07-11T06:25:21;2.90;;;1.73;;
9934;SDS011;5006;41.828;23.478;2022-07-11T06:26:26;4.40;;;2.25;;
9934;SDS011;5006;41.828;23.478;2022-07-11T06:27:32;3.85;;;1.63;;
9934;SDS011;5006;41.828;23.478;2022-07-11T06:28:37;1.95;;;1.52;;
9934;SDS011;5006;41.828;23.478;2022-07-11T06:29:43;2.53;;;1.55;;
9934;SDS011;5006;41.828;23.478;2022-07-11T06:30:50;3.47;;;1.30;;
9934;SDS011;5006;41.828;23.478;2022-07-11T06:31:56;3.83;;;1.45;;
9934;SDS011;5006;41.828;23.478;2022-07-11T06:33:01;3.13;;;1.80;;
9934;SDS011;5006;41.828;23.478;2022-07-11T06:34:07;3.80;;;1.30;;
9934;SDS011;5006;41.828;23.478;2022-07-11T06:35:13;1.67;;;1.58;;
9934;SDS011;5006;41.828;23.478;2022-07-11T06:36:18;2.78;;;1.60;;
9934;SDS011;5006;41.828;23.478;2022-07-11T06:37:25;3.38;;;1.70;;
9934;SDS011;5006;41.828;23.478;2022-07-11T06:38:30;3.28;;;1.50;;
9934;SDS011;5006;41.828;23.478;2022-07-11T06:39:36;1.95;;;1.50;;
9934;SDS011;5006;41.828;23.478;2022-07-11T06:40:41;3.65;;;1.50;;
9934;SDS011;5006;41.828;23.478;2022-07-11T06:41:47;3.65;;;1.40;;
9934;SDS011;5006;41.828;23.478;2022-07-11T06:42:53;1.95;;;1.63;;